sensor_id;sensor_type;location;lat;lon;timestamp;pressure;altitude;pressure_sealevel;temperature;humidity
13348;BME280;6743;49.934;9.138;2023-03-01T00:02:19;101598.22;;;0.59;100.00
13348;BME280;6743;49.934;9.138;2023-03-01T00:04:45;101594.81;;;0.57;100.00
13348;BME280;6743;49.934;9.138;2023-03-01T00:07:12;101598.16;;;0.61;100.00
13348;BME280;6743;49.934;9.138;2023-03-01T00:09:38;101608.62;;;0.61;100.00
13348;BME280;6743;49.934;9.138;2023-03-01T00:12:05;101603.37;;;0.61;100.00
13348;BME280;6743;49.934;9.138;2023-03-01T00:14:31;101601.69;;;0.60;100.00
13348;BME280;6743;49.934;9.138;2023-03-01T00:16:57;101590.44;;;0.58;100.00
13348;BME280;6743;49.934;9.138;2023-03-01T00:19:23;101601.69;;;0.60;100.00
13348;BME280;6743;49.934;9.138;2023-03-01T00:21:50;101596.53;;;0.58;100.00
13348;BME280;6743;49.934;9.138;2023-03-01T00:24:16;101591.56;;;0.52;100.00
13348;BME280;6743;49.934;9.138;2023-03-01T00:26:43;101597.72;;;0.51;100.00
13348;BME280;6743;49.934;9.138;2023-03-01T00:29:08;101593.47;;;0.49;100.00
13348;BME280;6743;49.934;9.138;2023-03-01T00:31:35;101598.84;;;0.46;100.00
13348;BME280;6743;49.934;9.138;2023-03-01T00:34:03;101590.22;;;0.44;100.00
13348;BME280;6743;49.934;9.138;2023-03-01T00:36:31;101584.22;;;0.42;100.00
13348;BME280;6743;49.934;9.138;2023-03-01T00:38:57;101579.84;;;0.42;100.00
13348;BME280;6743;49.934;9.138;2023-03-01T00:41:24;101584.28;;;0.40;100.00
13348;BME280;6743;49.934;9.138;2023-03-01T00:43:52;101575.69;;;0.38;100.00
13348;BME280;6743;49.934;9.138;2023-03-01T00:46:20;101569.66;;;0.36;100.00
13348;BME280;6743;49.934;9.138;2023-03-01T00:48:47;101570.66;;;0.33;100.00
13348;BME280;6743;49.934;9.138;2023-03-01T00:51:16;101571.63;;;0.31;100.00
13348;BME280;6743;49.934;9.138;2023-03-01T00:53:43;101564.78;;;0.28;100.00
13348;BME280;6743;49.934;9.138;2023-03-01T00:56:11;101558.94;;;0.23;100.00
13348;BME280;6743;49.934;9.138;2023-03-01T00:58:38;101557.22;;;0.22;100.00
13348;BME280;6743;49.934;9.138;2023-03-01T01:01:08;101557.56;;;0.15;100.00
13348;BME280;6743;49.934;9.138;2023-03-01T01:03:43;101554.88;;;0.16;100.00
13348;BME280;6743;49.934;9.138;2023-03-01T01:06:13;101556.84;;;0.11;100.00
13348;BME280;6743;49.934;9.138;2023-03-01T01:08:39;101544.09;;;0.05;100.00
13348;BME280;6743;49.934;9.138;2023-03-01T01:11:05;101555.47;;;0.03;100.00
13348;BME280;6743;49.934;9.138;2023-03-01T01:13:34;101548.72;;;-0.02;100.00
13348;BME280;6743;49.934;9.138;2023-03-01T01:16:01;101543.75;;;-0.08;100.00
13348;BME280;6743;49.934;9.138;2023-03-01T01:18:27;101545.63;;;-0.11;100.00
13348;BME280;6743;49.934;9.138;2023-03-01T01:20:53;101538.03;;;-0.16;100.00
13348;BME280;6743;49.934;9.138;2023-03-01T01:23:19;101532.97;;;-0.20;100.00
13348;BME280;6743;49.934;9.138;2023-03-01T01:25:46;101516.69;;;-0.25;100.00
13348;BME280;6743;49.934;9.138;2023-03-01T01:28:12;101521.06;;;-0.26;100.00
13348;BME280;6743;49.934;9.138;2023-03-01T01:30:38;101513.38;;;-0.29;100.00
13348;BME280;6743;49.934;9.138;2023-03-01T01:33:04;101521.31;;;-0.32;100.00
13348;BME280;6743;49.934;9.138;2023-03-01T01:35:30;101516.16;;;-0.33;100.00
13348;BME280;6743;49.934;9.138;2023-03-01T01:37:57;101503.31;;;-0.38;100.00
13348;BME280;6743;49.934;9.138;2023-03-01T01:40:23;101518.06;;;-0.37;100.00
13348;BME280;6743;49.934;9.138;2023-03-01T01:42:49;101509.44;;;-0.39;100.00
13348;BME280;6743;49.934;9.138;2023-03-01T01:45:31;101507.75;;;-0.40;100.00
13348;BME280;6743;49.934;9.138;2023-03-01T01:48:01;101500.84;;;-0.41;100.00
13348;BME280;6743;49.934;9.138;2023-03-01T01:50:30;101504.37;;;-0.42;100.00
13348;BME280;6743;49.934;9.138;2023-03-01T01:53:06;101506.19;;;-0.44;100.00
13348;BME280;6743;49.934;9.138;2023-03-01T01:55:35;101505.28;;;-0.43;100.00
13348;BME280;6743;49.934;9.138;2023-03-01T01:58:04;101502.81;;;-0.46;100.00
13348;BME280;6743;49.934;9.138;2023-03-01T02:00:31;101510.69;;;-0.48;100.00
13348;BME280;6743;49.934;9.138;2023-03-01T02:02:59;101518.44;;;-0.46;100.00
13348;BME280;6743;49.934;9.138;2023-03-01T02:05:34;101510.69;;;-0.48;100.00
13348;BME280;6743;49.934;9.138;2023-03-01T02:08:03;101505.56;;;-0.49;100.00
13348;BME280;6743;49.934;9.138;2023-03-01T02:10:32;101514.13;;;-0.47;100.00
13348;BME280;6743;49.934;9.138;2023-03-01T02:13:00;101502.09;;;-0.50;100.00
13348;BME280;6743;49.934;9.138;2023-03-01T02:15:26;101497.00;;;-0.53;100.00
13348;BME280;6743;49.934;9.138;2023-03-01T02:17:53;101506.41;;;-0.49;100.00
13348;BME280;6743;49.934;9.138;2023-03-01T02:20:25;101503.78;;;-0.49;100.00
13348;BME280;6743;49.934;9.138;2023-03-01T02:22:53;101505.56;;;-0.49;100.00
13348;BME280;6743;49.934;9.138;2023-03-01T02:25:26;101504.69;;;-0.50;100.00
13348;BME280;6743;49.934;9.138;2023-03-01T02:27:58;101498.63;;;-0.50;100.00
13348;BME280;6743;49.934;9.138;2023-03-01T02:30:29;101491.66;;;-0.50;100.00
13348;BME280;6743;49.934;9.138;2023-03-01T02:32:57;101488.31;;;-0.53;100.00
13348;BME280;6743;49.934;9.138;2023-03-01T02:35:29;101491.78;;;-0.53;100.00
13348;BME280;6743;49.934;9.138;2023-03-01T02:37:56;101487.41;;;-0.52;100.00
13348;BME280;6743;49.934;9.138;2023-03-01T02:40:57;101484.81;;;-0.52;100.00
13348;BME280;6743;49.934;9.138;2023-03-01T02:43:27;101481.34;;;-0.53;100.00
13348;BME280;6743;49.934;9.138;2023-03-01T02:45:58;101468.59;;;-0.59;100.00
13348;BME280;6743;49.934;9.138;2023-03-01T02:48:24;101463.31;;;-0.57;100.00
13348;BME280;6743;49.934;9.138;2023-03-01T02:51:04;101464.94;;;-0.55;100.00
13348;BME280;6743;49.934;9.138;2023-03-01T02:53:39;101466.69;;;-0.55;100.00
13348;BME280;6743;49.934;9.138;2023-03-01T02:56:10;101464.06;;;-0.55;100.00
13348;BME280;6743;49.934;9.138;2023-03-01T02:58:38;101467.53;;;-0.55;100.00
13348;BME280;6743;49.934;9.138;2023-03-01T03:01:11;101460.56;;;-0.54;100.00
13348;BME280;6743;49.934;9.138;2023-03-01T03:03:38;101447.63;;;-0.56;100.00
13348;BME280;6743;49.934;9.138;2023-03-01T03:06:05;101447.84;;;-0.62;100.00
13348;BME280;6743;49.934;9.138;2023-03-01T03:08:30;101453.84;;;-0.60;100.00
13348;BME280;6743;49.934;9.138;2023-03-01T03:10:56;101446.94;;;-0.61;100.00
13348;BME280;6743;49.934;9.138;2023-03-01T03:13:23;101443.56;;;-0.63;100.00
13348;BME280;6743;49.934;9.138;2023-03-01T03:15:54;101438.38;;;-0.63;100.00
13348;BME280;6743;49.934;9.138;2023-03-01T03:18:21;101436.66;;;-0.64;100.00
13348;BME280;6743;49.934;9.138;2023-03-01T03:20:48;101432.34;;;-0.65;100.00
13348;BME280;6743;49.934;9.138;2023-03-01T03:23:18;101431.50;;;-0.65;100.00
13348;BME280;6743;49.934;9.138;2023-03-01T03:25:44;101423.69;;;-0.65;100.00
13348;BME280;6743;49.934;9.138;2023-03-01T03:28:10;101420.19;;;-0.64;100.00
13348;BME280;6743;49.934;9.138;2023-03-01T03:30:38;101418.47;;;-0.65;100.00
13348;BME280;6743;49.934;9.138;2023-03-01T03:33:06;101419.28;;;-0.63;100.00
13348;BME280;6743;49.934;9.138;2023-03-01T03:35:37;101417.56;;;-0.64;100.00
13348;BME280;6743;49.934;9.138;2023-03-01T03:38:15;101415.03;;;-0.66;100.00
13348;BME280;6743;49.934;9.138;2023-03-01T03:41:00;101414.13;;;-0.65;100.00
13348;BME280;6743;49.934;9.138;2023-03-01T03:43:28;101414.13;;;-0.65;100.00
13348;BME280;6743;49.934;9.138;2023-03-01T03:45:55;101408.06;;;-0.65;100.00
13348;BME280;6743;49.934;9.138;2023-03-01T03:48:23;101408.91;;;-0.65;100.00
13348;BME280;6743;49.934;9.138;2023-03-01T03:50:51;101411.44;;;-0.63;100.00
13348;BME280;6743;49.934;9.138;2023-03-01T03:53:18;101414.06;;;-0.63;100.00
13348;BME280;6743;49.934;9.138;2023-03-01T03:55:45;101410.59;;;-0.64;100.00
13348;BME280;6743;49.934;9.138;2023-03-01T03:58:15;101408.59;;;-0.57;100.00
13348;BME280;6743;49.934;9.138;2023-03-01T04:00:43;101408.53;;;-0.56;100.00
13348;BME280;6743;49.934;9.138;2023-03-01T04:03:11;101414.44;;;-0.52;100.00
13348;BME280;6743;49.934;9.138;2023-03-01T04:05:39;101412.41;;;-0.46;100.00
13348;BME280;6743;49.934;9.138;2023-03-01T04:08:07;101412.28;;;-0.43;100.00
13348;BME280;6743;49.934;9.138;2023-03-01T04:10:35;101412.94;;;-0.37;100.00
13348;BME280;6743;49.934;9.138;2023-03-01T04:13:02;101414.62;;;-0.36;100.00
13348;BME280;6743;49.934;9.138;2023-03-01T04:15:28;101413.78;;;-0.37;100.00
13348;BME280;6743;49.934;9.138;2023-03-01T04:17:55;101412.66;;;-0.31;100.00
13348;BME280;6743;49.934;9.138;2023-03-01T04:20:22;101400.69;;;-0.35;100.00
13348;BME280;6743;49.934;9.138;2023-03-01T04:22:51;101409.13;;;-0.30;100.00
13348;BME280;6743;49.934;9.138;2023-03-01T04:25:18;101404.72;;;-0.28;100.00
13348;BME280;6743;49.934;9.138;2023-03-01T04:27:44;101395.31;;;-0.32;100.00
13348;BME280;6743;49.934;9.138;2023-03-01T04:30:11;101401.88;;;-0.24;100.00
13348;BME280;6743;49.934;9.138;2023-03-01T04:32:37;101402.59;;;-0.20;100.00
13348;BME280;6743;49.934;9.138;2023-03-01T04:35:03;101399.06;;;-0.19;100.00
13348;BME280;6743;49.934;9.138;2023-03-01T04:37:29;101394.00;;;-0.22;100.00
13348;BME280;6743;49.934;9.138;2023-03-01T04:39:55;101392.09;;;-0.19;100.00
13348;BME280;6743;49.934;9.138;2023-03-01T04:42:22;101401.62;;;-0.18;100.00
13348;BME280;6743;49.934;9.138;2023-03-01T04:44:48;101400.75;;;-0.18;100.00
13348;BME280;6743;49.934;9.138;2023-03-01T04:47:16;101407.69;;;-0.17;100.00
13348;BME280;6743;49.934;9.138;2023-03-01T04:49:42;101412.03;;;-0.18;100.00
13348;BME280;6743;49.934;9.138;2023-03-01T04:52:08;101408.59;;;-0.18;100.00
13348;BME280;6743;49.934;9.138;2023-03-01T04:54:35;101404.38;;;-0.21;100.00
13348;BME280;6743;49.934;9.138;2023-03-01T04:57:01;101403.59;;;-0.23;100.00
13348;BME280;6743;49.934;9.138;2023-03-01T04:59:29;101407.09;;;-0.24;100.00
13348;BME280;6743;49.934;9.138;2023-03-01T05:01:55;101392.66;;;-0.31;100.00
13348;BME280;6743;49.934;9.138;2023-03-01T05:04:22;101408.06;;;-0.26;100.00
13348;BME280;6743;49.934;9.138;2023-03-01T05:06:48;101408.16;;;-0.28;100.00
13348;BME280;6743;49.934;9.138;2023-03-01T05:09:14;101405.69;;;-0.31;100.00
13348;BME280;6743;49.934;9.138;2023-03-01T05:11:41;101411.97;;;-0.35;100.00
13348;BME280;6743;49.934;9.138;2023-03-01T05:14:08;101409.47;;;-0.38;100.00
13348;BME280;6743;49.934;9.138;2023-03-01T05:16:35;101405.22;;;-0.41;100.00
13348;BME280;6743;49.934;9.138;2023-03-01T05:19:02;101399.25;;;-0.43;100.00
13348;BME280;6743;49.934;9.138;2023-03-01T05:21:36;101394.22;;;-0.47;100.00
13348;BME280;6743;49.934;9.138;2023-03-01T05:24:23;101396.81;;;-0.47;100.00
13348;BME280;6743;49.934;9.138;2023-03-01T05:26:49;101401.34;;;-0.51;100.00
13348;BME280;6743;49.934;9.138;2023-03-01T05:29:17;101403.16;;;-0.53;100.00
13348;BME280;6743;49.934;9.138;2023-03-01T05:31:44;101396.25;;;-0.54;100.00
13348;BME280;6743;49.934;9.138;2023-03-01T05:34:10;101399.75;;;-0.55;100.00
13348;BME280;6743;49.934;9.138;2023-03-01T05:36:38;101387.72;;;-0.57;100.00
13348;BME280;6743;49.934;9.138;2023-03-01T05:39:04;101387.72;;;-0.57;100.00
13348;BME280;6743;49.934;9.138;2023-03-01T05:41:30;101387.66;;;-0.56;100.00
13348;BME280;6743;49.934;9.138;2023-03-01T05:43:56;101387.00;;;-0.61;100.00
13348;BME280;6743;49.934;9.138;2023-03-01T05:46:22;101386.81;;;-0.56;100.00
13348;BME280;6743;49.934;9.138;2023-03-01T05:48:50;101386.88;;;-0.58;100.00
13348;BME280;6743;49.934;9.138;2023-03-01T05:51:16;101388.69;;;-0.60;100.00
13348;BME280;6743;49.934;9.138;2023-03-01T05:53:43;101383.63;;;-0.63;100.00
13348;BME280;6743;49.934;9.138;2023-03-01T05:56:09;101387.91;;;-0.62;100.00
13348;BME280;6743;49.934;9.138;2023-03-01T05:58:36;101390.50;;;-0.62;100.00
13348;BME280;6743;49.934;9.138;2023-03-01T06:01:04;101381.88;;;-0.62;100.00
13348;BME280;6743;49.934;9.138;2023-03-01T06:03:30;101380.25;;;-0.65;100.00
13348;BME280;6743;49.934;9.138;2023-03-01T06:05:57;101382.78;;;-0.63;100.00
13348;BME280;6743;49.934;9.138;2023-03-01T06:08:23;101384.47;;;-0.62;100.00
13348;BME280;6743;49.934;9.138;2023-03-01T06:10:49;101379.34;;;-0.64;100.00
13348;BME280;6743;49.934;9.138;2023-03-01T06:13:15;101394.06;;;-0.63;100.00
13348;BME280;6743;49.934;9.138;2023-03-01T06:15:41;101388.91;;;-0.64;100.00
13348;BME280;6743;49.934;9.138;2023-03-01T06:18:08;101381.09;;;-0.64;100.00
13348;BME280;6743;49.934;9.138;2023-03-01T06:20:34;101371.78;;;-0.70;100.00
13348;BME280;6743;49.934;9.138;2023-03-01T06:23:01;101376.72;;;-0.64;100.00
13348;BME280;6743;49.934;9.138;2023-03-01T06:25:27;101378.34;;;-0.61;100.00
13348;BME280;6743;49.934;9.138;2023-03-01T06:27:53;101380.03;;;-0.60;100.00
13348;BME280;6743;49.934;9.138;2023-03-01T06:30:21;101373.13;;;-0.61;100.00
13348;BME280;6743;49.934;9.138;2023-03-01T06:32:49;101387.91;;;-0.62;100.00
13348;BME280;6743;49.934;9.138;2023-03-01T06:35:16;101379.28;;;-0.62;100.00
13348;BME280;6743;49.934;9.138;2023-03-01T06:37:43;101368.06;;;-0.64;100.00
13348;BME280;6743;49.934;9.138;2023-03-01T06:40:11;101370.44;;;-0.60;100.00
13348;BME280;6743;49.934;9.138;2023-03-01T06:42:41;101368.00;;;-0.63;100.00
13348;BME280;6743;49.934;9.138;2023-03-01T06:45:08;101376.41;;;-0.56;100.00
13348;BME280;6743;49.934;9.138;2023-03-01T06:47:34;101374.50;;;-0.53;100.00
13348;BME280;6743;49.934;9.138;2023-03-01T06:50:01;101370.34;;;-0.57;100.00
13348;BME280;6743;49.934;9.138;2023-03-01T06:52:27;101375.28;;;-0.51;100.00
13348;BME280;6743;49.934;9.138;2023-03-01T06:54:53;101376.88;;;-0.48;100.00
13348;BME280;6743;49.934;9.138;2023-03-01T06:57:20;101372.41;;;-0.45;100.00
13348;BME280;6743;49.934;9.138;2023-03-01T06:59:46;101371.28;;;-0.39;100.00
13348;BME280;6743;49.934;9.138;2023-03-01T07:02:13;101368.31;;;-0.31;100.00
13348;BME280;6743;49.934;9.138;2023-03-01T07:04:40;101364.53;;;-0.24;100.00
13348;BME280;6743;49.934;9.138;2023-03-01T07:07:06;101365.81;;;-0.14;100.00
13348;BME280;6743;49.934;9.138;2023-03-01T07:09:32;101359.31;;;-0.06;100.00
13348;BME280;6743;49.934;9.138;2023-03-01T07:11:58;101358.06;;;0.03;100.00
13348;BME280;6743;49.934;9.138;2023-03-01T07:14:25;101359.41;;;0.12;100.00
13348;BME280;6743;49.934;9.138;2023-03-01T07:16:51;101357.41;;;0.17;100.00
13348;BME280;6743;49.934;9.138;2023-03-01T07:19:17;101353.47;;;0.27;100.00
13348;BME280;6743;49.934;9.138;2023-03-01T07:21:44;101353.94;;;0.35;100.00
13348;BME280;6743;49.934;9.138;2023-03-01T07:24:10;101354.34;;;0.45;100.00
13348;BME280;6743;49.934;9.138;2023-03-01T07:26:36;101357.28;;;0.56;100.00
13348;BME280;6743;49.934;9.138;2023-03-01T07:29:03;101346.69;;;0.59;100.00
13348;BME280;6743;49.934;9.138;2023-03-01T07:31:30;101353.00;;;0.72;100.00
13348;BME280;6743;49.934;9.138;2023-03-01T07:33:56;101346.78;;;0.74;100.00
13348;BME280;6743;49.934;9.138;2023-03-01T07:36:23;101348.94;;;0.84;100.00
13348;BME280;6743;49.934;9.138;2023-03-01T07:38:49;101334.22;;;0.83;100.00
13348;BME280;6743;49.934;9.138;2023-03-01T07:41:15;101351.94;;;0.93;100.00
13348;BME280;6743;49.934;9.138;2023-03-01T07:43:41;101348.25;;;0.97;100.00
13348;BME280;6743;49.934;9.138;2023-03-01T07:46:07;101345.41;;;1.02;100.00
13348;BME280;6743;49.934;9.138;2023-03-01T07:48:33;101340.88;;;1.05;100.00
13348;BME280;6743;49.934;9.138;2023-03-01T07:51:00;101330.19;;;1.10;100.00
13348;BME280;6743;49.934;9.138;2023-03-01T07:53:27;101331.06;;;1.10;100.00
13348;BME280;6743;49.934;9.138;2023-03-01T07:56:00;101337.78;;;1.14;100.00
13348;BME280;6743;49.934;9.138;2023-03-01T07:58:26;101335.25;;;1.13;100.00
13348;BME280;6743;49.934;9.138;2023-03-01T08:00:52;101340.28;;;1.17;100.00
13348;BME280;6743;49.934;9.138;2023-03-01T08:03:18;101333.34;;;1.16;100.00
13348;BME280;6743;49.934;9.138;2023-03-01T08:05:45;101327.81;;;1.23;100.00
13348;BME280;6743;49.934;9.138;2023-03-01T08:08:11;101331.09;;;1.26;100.00
13348;BME280;6743;49.934;9.138;2023-03-01T08:10:37;101323.09;;;1.29;100.00
13348;BME280;6743;49.934;9.138;2023-03-01T08:13:03;101327.94;;;1.37;100.00
13348;BME280;6743;49.934;9.138;2023-03-01T08:15:29;101327.59;;;1.43;100.00
13348;BME280;6743;49.934;9.138;2023-03-01T08:17:55;101314.13;;;1.50;100.00
13348;BME280;6743;49.934;9.138;2023-03-01T08:20:21;101323.56;;;1.53;100.00
13348;BME280;6743;49.934;9.138;2023-03-01T08:22:47;101317.34;;;1.55;100.00
13348;BME280;6743;49.934;9.138;2023-03-01T08:25:13;101322.50;;;1.57;100.00
13348;BME280;6743;49.934;9.138;2023-03-01T08:27:39;101321.41;;;1.61;100.00
13348;BME280;6743;49.934;9.138;2023-03-01T08:30:07;101323.88;;;1.64;100.00
13348;BME280;6743;49.934;9.138;2023-03-01T08:32:35;101320.22;;;1.67;100.00
13348;BME280;6743;49.934;9.138;2023-03-01T08:35:01;101324.38;;;1.71;100.00
13348;BME280;6743;49.934;9.138;2023-03-01T08:37:27;101321.50;;;1.75;100.00
13348;BME280;6743;49.934;9.138;2023-03-01T08:39:56;101310.97;;;1.77;100.00
13348;BME280;6743;49.934;9.138;2023-03-01T08:42:22;101315.09;;;1.81;100.00
13348;BME280;6743;49.934;9.138;2023-03-01T08:44:48;101309.62;;;1.85;100.00
13348;BME280;6743;49.934;9.138;2023-03-01T08:47:14;101313.75;;;1.89;100.00
13348;BME280;6743;49.934;9.138;2023-03-01T08:49:40;101304.81;;;1.93;100.00
13348;BME280;6743;49.934;9.138;2023-03-01T08:52:06;101308.09;;;1.97;100.00
13348;BME280;6743;49.934;9.138;2023-03-01T08:54:32;101299.06;;;2.03;100.00
13348;BME280;6743;49.934;9.138;2023-03-01T08:57:01;101303.09;;;2.08;100.00
13348;BME280;6743;49.934;9.138;2023-03-01T08:59:27;101290.72;;;2.12;100.00
13348;BME280;6743;49.934;9.138;2023-03-01T09:01:55;101290.44;;;2.16;100.00
13348;BME280;6743;49.934;9.138;2023-03-01T09:04:21;101289.34;;;2.20;100.00
13348;BME280;6743;49.934;9.138;2023-03-01T09:06:47;101292.62;;;2.24;100.00
13348;BME280;6743;49.934;9.138;2023-03-01T09:09:15;101287.03;;;2.30;100.00
13348;BME280;6743;49.934;9.138;2023-03-01T09:11:41;101288.38;;;2.37;100.00
13348;BME280;6743;49.934;9.138;2023-03-01T09:14:08;101280.53;;;2.37;100.00
13348;BME280;6743;49.934;9.138;2023-03-01T09:16:34;101275.88;;;2.42;100.00
13348;BME280;6743;49.934;9.138;2023-03-01T09:19:02;101275.53;;;2.48;100.00
13348;BME280;6743;49.934;9.138;2023-03-01T09:21:28;101272.56;;;2.54;100.00
13348;BME280;6743;49.934;9.138;2023-03-01T09:23:56;101270.59;;;2.58;100.00
13348;BME280;6743;49.934;9.138;2023-03-01T09:26:23;101279.88;;;2.63;100.00
13348;BME280;6743;49.934;9.138;2023-03-01T09:28:50;101262.22;;;2.67;100.00
13348;BME280;6743;49.934;9.138;2023-03-01T09:31:19;101260.25;;;2.70;100.00
13348;BME280;6743;49.934;9.138;2023-03-01T09:33:46;101257.94;;;2.80;100.00
13348;BME280;6743;49.934;9.138;2023-03-01T09:36:14;101258.50;;;2.85;100.00
13348;BME280;6743;49.934;9.138;2023-03-01T09:38:41;101256.63;;;2.87;100.00
13348;BME280;6743;49.934;9.138;2023-03-01T09:41:10;101255.41;;;2.93;100.00
13348;BME280;6743;49.934;9.138;2023-03-01T09:43:41;101239.69;;;2.93;100.00
13348;BME280;6743;49.934;9.138;2023-03-01T09:46:11;101251.31;;;3.03;100.00
13348;BME280;6743;49.934;9.138;2023-03-01T09:48:46;101231.94;;;3.05;100.00
13348;BME280;6743;49.934;9.138;2023-03-01T09:51:18;101239.25;;;3.14;100.00
13348;BME280;6743;49.934;9.138;2023-03-01T09:53:45;101240.84;;;3.17;100.00
13348;BME280;6743;49.934;9.138;2023-03-01T09:56:16;101237.09;;;3.21;100.00
13348;BME280;6743;49.934;9.138;2023-03-01T09:58:50;101239.06;;;3.32;100.00
13348;BME280;6743;49.934;9.138;2023-03-01T10:01:29;101246.56;;;3.38;100.00
13348;BME280;6743;49.934;9.138;2023-03-01T10:04:26;101251.34;;;3.45;100.00
13348;BME280;6743;49.934;9.138;2023-03-01T10:07:02;101245.97;;;3.47;100.00
13348;BME280;6743;49.934;9.138;2023-03-01T10:09:33;101241.19;;;3.53;100.00
13348;BME280;6743;49.934;9.138;2023-03-01T10:12:01;101237.44;;;3.58;100.00
13348;BME280;6743;49.934;9.138;2023-03-01T10:14:33;101237.06;;;3.64;100.00
13348;BME280;6743;49.934;9.138;2023-03-01T10:17:03;101224.56;;;3.67;100.00
13348;BME280;6743;49.934;9.138;2023-03-01T10:19:33;101221.38;;;3.76;100.00
13348;BME280;6743;49.934;9.138;2023-03-01T10:22:03;101222.03;;;3.80;100.00
13348;BME280;6743;49.934;9.138;2023-03-01T10:24:33;101206.28;;;3.80;100.00
13348;BME280;6743;49.934;9.138;2023-03-01T10:27:04;101209.53;;;3.83;100.00
13348;BME280;6743;49.934;9.138;2023-03-01T10:29:36;101198.72;;;3.88;100.00
13348;BME280;6743;49.934;9.138;2023-03-01T10:32:04;101196.03;;;3.89;100.00
13348;BME280;6743;49.934;9.138;2023-03-01T10:34:34;101201.94;;;3.93;100.00
13348;BME280;6743;49.934;9.138;2023-03-01T10:37:09;101202.56;;;3.96;100.00
13348;BME280;6743;49.934;9.138;2023-03-01T10:39:35;101197.75;;;4.03;100.00
13348;BME280;6743;49.934;9.138;2023-03-01T10:42:03;101195.56;;;4.10;100.00
13348;BME280;6743;49.934;9.138;2023-03-01T10:44:45;101188.34;;;4.13;100.00
13348;BME280;6743;49.934;9.138;2023-03-01T10:47:18;101200.31;;;4.17;100.00
13348;BME280;6743;49.934;9.138;2023-03-01T10:49:58;101184.56;;;4.17;100.00
13348;BME280;6743;49.934;9.138;2023-03-01T10:52:28;101178.47;;;4.17;100.00
13348;BME280;6743;49.934;9.138;2023-03-01T10:54:56;101179.75;;;4.24;100.00
13348;BME280;6743;49.934;9.138;2023-03-01T10:57:29;101176.81;;;4.28;100.00
13348;BME280;6743;49.934;9.138;2023-03-01T11:00:03;101179.31;;;4.30;100.00
13348;BME280;6743;49.934;9.138;2023-03-01T11:02:36;101167.88;;;4.31;100.00
13348;BME280;6743;49.934;9.138;2023-03-01T11:05:18;101184.28;;;4.34;100.00
13348;BME280;6743;49.934;9.138;2023-03-01T11:07:49;101172.63;;;4.39;100.00
13348;BME280;6743;49.934;9.138;2023-03-01T11:10:18;101175.16;;;4.40;100.00
13348;BME280;6743;49.934;9.138;2023-03-01T11:12:44;101166.22;;;4.43;100.00
13348;BME280;6743;49.934;9.138;2023-03-01T11:15:20;101169.16;;;4.51;100.00
13348;BME280;6743;49.934;9.138;2023-03-01T11:17:47;101154.91;;;4.55;100.00
13348;BME280;6743;49.934;9.138;2023-03-01T11:20:20;101158.22;;;4.57;100.00
13348;BME280;6743;49.934;9.138;2023-03-01T11:22:52;101158.22;;;4.57;100.00
13348;BME280;6743;49.934;9.138;2023-03-01T11:25:24;101147.34;;;4.63;100.00
13348;BME280;6743;49.934;9.138;2023-03-01T11:27:52;101143.44;;;4.68;100.00
13348;BME280;6743;49.934;9.138;2023-03-01T11:30:22;101140.28;;;4.76;100.00
13348;BME280;6743;49.934;9.138;2023-03-01T11:32:55;101140.69;;;4.83;100.00
13348;BME280;6743;49.934;9.138;2023-03-01T11:35:26;101145.81;;;4.84;100.00
13348;BME280;6743;49.934;9.138;2023-03-01T11:38:01;101134.59;;;4.82;100.00
13348;BME280;6743;49.934;9.138;2023-03-01T11:40:32;101128.91;;;4.88;100.00
13348;BME280;6743;49.934;9.138;2023-03-01T11:43:05;101123.22;;;4.94;100.00
13348;BME280;6743;49.934;9.138;2023-03-01T11:45:47;101118.47;;;4.99;100.00
13348;BME280;6743;49.934;9.138;2023-03-01T11:48:34;101113.62;;;5.06;100.00
13348;BME280;6743;49.934;9.138;2023-03-01T11:51:08;101109.50;;;5.14;100.00
13348;BME280;6743;49.934;9.138;2023-03-01T11:53:48;101122.31;;;5.19;100.00
13348;BME280;6743;49.934;9.138;2023-03-01T11:56:25;101102.84;;;5.22;100.00
13348;BME280;6743;49.934;9.138;2023-03-01T12:01:55;101097.53;;;5.34;100.00
13348;BME280;6743;49.934;9.138;2023-03-01T12:07:31;101095.19;;;5.42;100.00
13348;BME280;6743;49.934;9.138;2023-03-01T12:10:22;101093.63;;;5.40;100.00
13348;BME280;6743;49.934;9.138;2023-03-01T12:13:04;101094.34;;;5.42;100.00
13348;BME280;6743;49.934;9.138;2023-03-01T12:15:44;101084.22;;;5.48;100.00
13348;BME280;6743;49.934;9.138;2023-03-01T12:18:29;101078.84;;;5.50;100.00
13348;BME280;6743;49.934;9.138;2023-03-01T12:21:03;101079.34;;;5.55;100.00
13348;BME280;6743;49.934;9.138;2023-03-01T12:26:33;101058.09;;;5.58;100.00
13348;BME280;6743;49.934;9.138;2023-03-01T12:29:09;101050.31;;;5.68;100.00
13348;BME280;6743;49.934;9.138;2023-03-01T12:31:52;101048.22;;;5.84;100.00
13348;BME280;6743;49.934;9.138;2023-03-01T12:34:30;101033.91;;;5.88;100.00
13348;BME280;6743;49.934;9.138;2023-03-01T12:37:16;101020.63;;;5.89;100.00
13348;BME280;6743;49.934;9.138;2023-03-01T12:39:56;101023.37;;;5.88;100.00
13348;BME280;6743;49.934;9.138;2023-03-01T12:42:30;101020.63;;;5.89;100.00
13348;BME280;6743;49.934;9.138;2023-03-01T12:45:26;101031.53;;;5.96;100.00
13348;BME280;6743;49.934;9.138;2023-03-01T12:48:19;101021.25;;;5.93;100.00
13348;BME280;6743;49.934;9.138;2023-03-01T12:50:50;101014.19;;;5.93;100.00
13348;BME280;6743;49.934;9.138;2023-03-01T12:53:23;101009.63;;;5.96;100.00
13348;BME280;6743;49.934;9.138;2023-03-01T12:55:53;101009.50;;;5.97;100.00
13348;BME280;6743;49.934;9.138;2023-03-01T12:58:24;100995.50;;;5.97;100.00
13348;BME280;6743;49.934;9.138;2023-03-01T13:01:05;101000.44;;;6.01;100.00
13348;BME280;6743;49.934;9.138;2023-03-01T13:03:53;101001.75;;;6.07;100.00
13348;BME280;6743;49.934;9.138;2023-03-01T13:06:31;100996.25;;;6.10;100.00
13348;BME280;6743;49.934;9.138;2023-03-01T13:09:07;100997.91;;;6.11;100.00
13348;BME280;6743;49.934;9.138;2023-03-01T13:11:41;100993.37;;;6.13;100.00
13348;BME280;6743;49.934;9.138;2023-03-01T13:14:35;100978.06;;;6.18;100.00
13348;BME280;6743;49.934;9.138;2023-03-01T13:17:01;100979.37;;;6.23;100.00